sensor_id;sensor_type;location;lat;lon;timestamp;pressure;altitude;pressure_sealevel;temperature;humidity
63819;BME280;49970;54.976;73.248;2023-04-08T00:00:49;101798.09;;;-8.65;54.53
63819;BME280;49970;54.976;73.248;2023-04-08T00:03:25;101798.94;;;-8.66;53.82
63819;BME280;49970;54.976;73.248;2023-04-08T00:05:51;101799.75;;;-8.69;54.29
63819;BME280;49970;54.976;73.248;2023-04-08T00:08:18;101808.31;;;-8.68;53.50
63819;BME280;49970;54.976;73.248;2023-04-08T00:10:51;101799.88;;;-8.64;53.81
63819;BME280;49970;54.976;73.248;2023-04-08T00:13:27;101802.53;;;-8.61;53.76
63819;BME280;49970;54.976;73.248;2023-04-08T00:15:53;101802.47;;;-8.63;55.49
63819;BME280;49970;54.976;73.248;2023-04-08T00:18:20;101786.09;;;-8.66;54.98
63819;BME280;49970;54.976;73.248;2023-04-08T00:20:46;101805.28;;;-8.55;55.63
63819;BME280;49970;54.976;73.248;2023-04-08T00:23:12;101810.44;;;-8.55;56.19
63819;BME280;49970;54.976;73.248;2023-04-08T00:25:38;101800.06;;;-8.58;55.97
63819;BME280;49970;54.976;73.248;2023-04-08T00:28:05;101799.16;;;-8.60;56.16
63819;BME280;49970;54.976;73.248;2023-04-08T00:30:31;101800.75;;;-8.64;56.29
63819;BME280;49970;54.976;73.248;2023-04-08T00:32:57;101805.16;;;-8.60;57.49
63819;BME280;49970;54.976;73.248;2023-04-08T00:35:23;101794.97;;;-8.57;56.96
63819;BME280;49970;54.976;73.248;2023-04-08T00:38:00;101796.88;;;-8.49;56.70
63819;BME280;49970;54.976;73.248;2023-04-08T00:40:36;101797.81;;;-8.47;56.94
63819;BME280;49970;54.976;73.248;2023-04-08T00:43:09;101790.84;;;-8.51;56.95
63819;BME280;49970;54.976;73.248;2023-04-08T00:45:35;101795.06;;;-8.54;57.13
63819;BME280;49970;54.976;73.248;2023-04-08T00:48:11;101783.78;;;-8.59;58.01
63819;BME280;49970;54.976;73.248;2023-04-08T00:50:43;101794.41;;;-8.46;57.71
63819;BME280;49970;54.976;73.248;2023-04-08T00:53:09;101793.66;;;-8.44;58.29
63819;BME280;49970;54.976;73.248;2023-04-08T00:55:36;101794.59;;;-8.40;58.22
63819;BME280;49970;54.976;73.248;2023-04-08T00:58:13;101787.03;;;-8.34;58.04
63819;BME280;49970;54.976;73.248;2023-04-08T01:00:47;101788.13;;;-8.28;58.64
63819;BME280;49970;54.976;73.248;2023-04-08T01:03:29;101794.13;;;-8.27;57.58
63819;BME280;49970;54.976;73.248;2023-04-08T01:06:12;101785.69;;;-8.21;57.75
63819;BME280;49970;54.976;73.248;2023-04-08T01:08:48;101790.81;;;-8.23;57.87
63819;BME280;49970;54.976;73.248;2023-04-08T01:11:16;101791.41;;;-8.32;58.17
63819;BME280;49970;54.976;73.248;2023-04-08T01:13:44;101806.22;;;-8.23;58.63
63819;BME280;49970;54.976;73.248;2023-04-08T01:16:13;101794.13;;;-8.27;59.23
63819;BME280;49970;54.976;73.248;2023-04-08T01:18:42;101805.41;;;-8.22;59.16
63819;BME280;49970;54.976;73.248;2023-04-08T01:21:11;101800.16;;;-8.25;59.53
63819;BME280;49970;54.976;73.248;2023-04-08T01:23:52;101803.47;;;-8.29;60.02
63819;BME280;49970;54.976;73.248;2023-04-08T01:26:22;101803.34;;;-8.34;59.67
63819;BME280;49970;54.976;73.248;2023-04-08T01:29:01;101806.63;;;-8.39;59.36
63819;BME280;49970;54.976;73.248;2023-04-08T01:31:28;101812.56;;;-8.40;59.61
63819;BME280;49970;54.976;73.248;2023-04-08T01:33:58;101806.53;;;-8.42;59.44
63819;BME280;49970;54.976;73.248;2023-04-08T01:36:27;101800.69;;;-8.37;59.99
63819;BME280;49970;54.976;73.248;2023-04-08T01:39:00;101805.50;;;-8.19;59.10
63819;BME280;49970;54.976;73.248;2023-04-08T01:41:29;101807.31;;;-7.85;59.52
63819;BME280;49970;54.976;73.248;2023-04-08T01:43:57;101800.00;;;-7.38;58.74
63819;BME280;49970;54.976;73.248;2023-04-08T01:46:24;101803.63;;;-6.96;57.39
63819;BME280;49970;54.976;73.248;2023-04-08T01:48:53;101804.38;;;-7.00;57.28
63819;BME280;49970;54.976;73.248;2023-04-08T01:51:21;101803.41;;;-7.06;57.18
63819;BME280;49970;54.976;73.248;2023-04-08T01:53:47;101803.44;;;-7.04;57.26
63819;BME280;49970;54.976;73.248;2023-04-08T01:56:14;101800.69;;;-6.75;56.62
63819;BME280;49970;54.976;73.248;2023-04-08T01:58:45;101807.56;;;-6.38;55.83
63819;BME280;49970;54.976;73.248;2023-04-08T02:01:16;101805.47;;;-6.55;54.87
63819;BME280;49970;54.976;73.248;2023-04-08T02:03:44;101805.38;;;-6.59;55.43
63819;BME280;49970;54.976;73.248;2023-04-08T02:06:13;101813.00;;;-6.64;55.79
63819;BME280;49970;54.976;73.248;2023-04-08T02:08:39;101811.28;;;-6.63;55.81
63819;BME280;49970;54.976;73.248;2023-04-08T02:11:05;101815.63;;;-6.61;56.06
63819;BME280;49970;54.976;73.248;2023-04-08T02:13:32;101814.69;;;-6.64;56.00
63819;BME280;49970;54.976;73.248;2023-04-08T02:18:59;101807.19;;;-6.55;55.91
63819;BME280;49970;54.976;73.248;2023-04-08T02:21:32;101816.84;;;-6.45;55.25
63819;BME280;49970;54.976;73.248;2023-04-08T02:24:04;101805.25;;;-6.24;55.10
63819;BME280;49970;54.976;73.248;2023-04-08T02:26:35;101802.19;;;-6.07;54.91
63819;BME280;49970;54.976;73.248;2023-04-08T02:29:03;101810.31;;;-5.87;54.52
63819;BME280;49970;54.976;73.248;2023-04-08T02:31:34;101812.03;;;-5.87;54.42
63819;BME280;49970;54.976;73.248;2023-04-08T02:34:01;101806.56;;;-6.04;54.45
63819;BME280;49970;54.976;73.248;2023-04-08T02:36:31;101818.13;;;-5.82;54.42
63819;BME280;49970;54.976;73.248;2023-04-08T02:39:04;101820.81;;;-5.78;54.30
63819;BME280;49970;54.976;73.248;2023-04-08T02:41:31;101813.13;;;-5.74;54.10
63819;BME280;49970;54.976;73.248;2023-04-08T02:43:57;101815.25;;;-5.55;53.79
63819;BME280;49970;54.976;73.248;2023-04-08T02:46:23;101811.13;;;-5.44;53.40
63819;BME280;49970;54.976;73.248;2023-04-08T02:48:49;101823.06;;;-5.51;52.83
63819;BME280;49970;54.976;73.248;2023-04-08T02:51:16;101816.97;;;-5.56;52.78
63819;BME280;49970;54.976;73.248;2023-04-08T02:53:42;101816.25;;;-5.47;53.22
63819;BME280;49970;54.976;73.248;2023-04-08T02:56:11;101813.69;;;-5.45;52.40
63819;BME280;49970;54.976;73.248;2023-04-08T02:58:38;101811.53;;;-5.22;52.17
63819;BME280;49970;54.976;73.248;2023-04-08T03:01:04;101815.88;;;-5.18;51.51
63819;BME280;49970;54.976;73.248;2023-04-08T03:03:30;101811.41;;;-5.29;51.50
63819;BME280;49970;54.976;73.248;2023-04-08T03:05:57;101819.94;;;-5.34;51.09
63819;BME280;49970;54.976;73.248;2023-04-08T03:08:24;101815.69;;;-5.31;51.22
63819;BME280;49970;54.976;73.248;2023-04-08T03:10:50;101810.63;;;-5.26;51.22
63819;BME280;49970;54.976;73.248;2023-04-08T03:13:16;101816.00;;;-5.14;50.78
63819;BME280;49970;54.976;73.248;2023-04-08T03:15:43;101817.78;;;-5.10;51.74
63819;BME280;49970;54.976;73.248;2023-04-08T03:18:14;101824.47;;;-5.21;50.62
63819;BME280;49970;54.976;73.248;2023-04-08T03:20:40;101812.50;;;-5.16;50.84
63819;BME280;49970;54.976;73.248;2023-04-08T03:23:07;101810.34;;;-4.91;50.91
63819;BME280;49970;54.976;73.248;2023-04-08T03:25:33;101807.53;;;-4.51;50.59
63819;BME280;49970;54.976;73.248;2023-04-08T03:27:59;101814.72;;;-4.30;50.27
63819;BME280;49970;54.976;73.248;2023-04-08T03:30:31;101806.97;;;-4.30;50.13
63819;BME280;49970;54.976;73.248;2023-04-08T03:32:57;101800.69;;;-4.44;49.31
63819;BME280;49970;54.976;73.248;2023-04-08T03:35:23;101801.31;;;-4.62;48.93
63819;BME280;49970;54.976;73.248;2023-04-08T03:37:50;101797.00;;;-4.61;49.78
63819;BME280;49970;54.976;73.248;2023-04-08T03:40:16;101796.66;;;-4.25;50.22
63819;BME280;49970;54.976;73.248;2023-04-08T03:42:42;101791.00;;;-3.96;49.47
63819;BME280;49970;54.976;73.248;2023-04-08T03:45:08;101801.56;;;-3.80;49.19
63819;BME280;49970;54.976;73.248;2023-04-08T03:47:35;101785.22;;;-3.74;49.18
63819;BME280;49970;54.976;73.248;2023-04-08T03:50:01;101799.25;;;-3.54;49.23
63819;BME280;49970;54.976;73.248;2023-04-08T03:52:28;101797.59;;;-3.45;49.42
63819;BME280;49970;54.976;73.248;2023-04-08T03:55:04;101786.44;;;-3.41;49.42
63819;BME280;49970;54.976;73.248;2023-04-08T03:57:30;101788.16;;;-3.40;49.02
63819;BME280;49970;54.976;73.248;2023-04-08T03:59:57;101794.28;;;-3.34;49.60
63819;BME280;49970;54.976;73.248;2023-04-08T04:02:23;101791.91;;;-3.09;49.50
63819;BME280;49970;54.976;73.248;2023-04-08T04:04:50;101785.78;;;-3.16;48.45
63819;BME280;49970;54.976;73.248;2023-04-08T04:07:16;101789.06;;;-3.37;48.85
63819;BME280;49970;54.976;73.248;2023-04-08T04:09:42;101787.94;;;-3.63;48.59
63819;BME280;49970;54.976;73.248;2023-04-08T04:12:08;101781.84;;;-3.65;48.04
63819;BME280;49970;54.976;73.248;2023-04-08T04:14:34;101781.84;;;-3.65;48.67
63819;BME280;49970;54.976;73.248;2023-04-08T04:17:01;101784.63;;;-3.47;48.57
63819;BME280;49970;54.976;73.248;2023-04-08T04:19:31;101780.53;;;-3.22;48.53
63819;BME280;49970;54.976;73.248;2023-04-08T04:21:57;101774.56;;;-3.16;48.66
63819;BME280;49970;54.976;73.248;2023-04-08T04:24:23;101772.84;;;-3.14;48.85
63819;BME280;49970;54.976;73.248;2023-04-08T04:26:50;101771.34;;;-2.85;49.02
63819;BME280;49970;54.976;73.248;2023-04-08T04:29:16;101766.22;;;-2.79;48.69
63819;BME280;49970;54.976;73.248;2023-04-08T04:31:42;101774.84;;;-2.84;48.23
63819;BME280;49970;54.976;73.248;2023-04-08T04:34:08;101778.31;;;-2.79;48.09
63819;BME280;49970;54.976;73.248;2023-04-08T04:36:34;101773.97;;;-2.83;47.46
63819;BME280;49970;54.976;73.248;2023-04-08T04:39:01;101767.06;;;-2.83;47.90
63819;BME280;49970;54.976;73.248;2023-04-08T04:41:27;101766.34;;;-2.60;48.42
63819;BME280;49970;54.976;73.248;2023-04-08T04:43:53;101764.69;;;-2.51;48.32
63819;BME280;49970;54.976;73.248;2023-04-08T04:46:20;101755.16;;;-2.55;48.25
63819;BME280;49970;54.976;73.248;2023-04-08T04:48:46;101760.34;;;-2.48;48.42
63819;BME280;49970;54.976;73.248;2023-04-08T04:51:12;101757.75;;;-2.53;48.63
63819;BME280;49970;54.976;73.248;2023-04-08T04:53:38;101757.00;;;-2.34;48.56
63819;BME280;49970;54.976;73.248;2023-04-08T04:56:05;101758.78;;;-2.14;48.48
63819;BME280;49970;54.976;73.248;2023-04-08T04:58:31;101753.56;;;-2.22;47.91
63819;BME280;49970;54.976;73.248;2023-04-08T05:00:57;101745.69;;;-2.45;47.67
63819;BME280;49970;54.976;73.248;2023-04-08T05:03:23;101754.38;;;-2.37;48.37
63819;BME280;49970;54.976;73.248;2023-04-08T05:05:53;101746.66;;;-2.21;48.32
63819;BME280;49970;54.976;73.248;2023-04-08T05:08:25;101748.38;;;-2.17;48.51
63819;BME280;49970;54.976;73.248;2023-04-08T05:10:59;101746.75;;;-1.97;47.78
63819;BME280;49970;54.976;73.248;2023-04-08T05:13:28;101737.28;;;-1.81;47.79
63819;BME280;49970;54.976;73.248;2023-04-08T05:15:54;101733.00;;;-1.65;47.68
63819;BME280;49970;54.976;73.248;2023-04-08T05:18:20;101736.47;;;-1.56;47.46
63819;BME280;49970;54.976;73.248;2023-04-08T05:20:47;101729.53;;;-1.60;47.30
63819;BME280;49970;54.976;73.248;2023-04-08T05:23:13;101721.72;;;-1.61;47.18
63819;BME280;49970;54.976;73.248;2023-04-08T05:25:49;101726.09;;;-1.48;46.62
63819;BME280;49970;54.976;73.248;2023-04-08T05:28:15;101726.94;;;-1.43;46.72
63819;BME280;49970;54.976;73.248;2023-04-08T05:30:41;101719.16;;;-1.40;46.96
63819;BME280;49970;54.976;73.248;2023-04-08T05:33:08;101715.69;;;-1.43;46.79
63819;BME280;49970;54.976;73.248;2023-04-08T05:35:39;101712.22;;;-1.53;46.65
63819;BME280;49970;54.976;73.248;2023-04-08T05:38:05;101708.75;;;-1.38;47.02
63819;BME280;49970;54.976;73.248;2023-04-08T05:40:32;101709.66;;;-1.21;46.95
63819;BME280;49970;54.976;73.248;2023-04-08T05:42:58;101700.09;;;-1.19;47.00
63819;BME280;49970;54.976;73.248;2023-04-08T05:45:24;101706.16;;;-1.23;46.68
63819;BME280;49970;54.976;73.248;2023-04-08T05:47:51;101701.81;;;-1.26;47.05
63819;BME280;49970;54.976;73.248;2023-04-08T05:50:17;101713.97;;;-1.15;46.92
63819;BME280;49970;54.976;73.248;2023-04-08T05:52:43;101704.41;;;-1.09;46.25
63819;BME280;49970;54.976;73.248;2023-04-08T05:55:11;101706.16;;;-0.95;45.94
63819;BME280;49970;54.976;73.248;2023-04-08T05:57:37;101700.94;;;-0.88;45.85
63819;BME280;49970;54.976;73.248;2023-04-08T06:00:05;101697.50;;;-1.04;46.01
63819;BME280;49970;54.976;73.248;2023-04-08T06:02:37;101694.03;;;-1.07;46.17
63819;BME280;49970;54.976;73.248;2023-04-08T06:05:03;101685.34;;;-1.03;46.55
63819;BME280;49970;54.976;73.248;2023-04-08T06:07:31;101684.47;;;-0.91;46.62
63819;BME280;49970;54.976;73.248;2023-04-08T06:09:57;101678.34;;;-0.77;46.72
63819;BME280;49970;54.976;73.248;2023-04-08T06:12:24;101678.34;;;-0.69;46.75
63819;BME280;49970;54.976;73.248;2023-04-08T06:14:54;101674.88;;;-0.68;46.56
63819;BME280;49970;54.976;73.248;2023-04-08T06:17:22;101671.41;;;-0.68;46.90
63819;BME280;49970;54.976;73.248;2023-04-08T06:19:48;101671.38;;;-0.59;46.82
63819;BME280;49970;54.976;73.248;2023-04-08T06:22:15;101670.50;;;-0.57;46.61
63819;BME280;49970;54.976;73.248;2023-04-08T06:24:41;101660.09;;;-0.54;46.48
63819;BME280;49970;54.976;73.248;2023-04-08T06:27:07;101658.38;;;-0.68;46.71
63819;BME280;49970;54.976;73.248;2023-04-08T06:29:33;101659.25;;;-0.66;47.00
63819;BME280;49970;54.976;73.248;2023-04-08T06:32:00;101650.59;;;-0.73;46.63
63819;BME280;49970;54.976;73.248;2023-04-08T06:34:26;101658.44;;;-0.79;46.89
63819;BME280;49970;54.976;73.248;2023-04-08T06:36:52;101660.16;;;-0.75;46.70
63819;BME280;49970;54.976;73.248;2023-04-08T06:39:18;101645.38;;;-0.65;47.20
63819;BME280;49970;54.976;73.248;2023-04-08T06:41:46;101649.69;;;-0.60;47.29
63819;BME280;49970;54.976;73.248;2023-04-08T06:44:32;101641.09;;;-0.83;47.50
63819;BME280;49970;54.976;73.248;2023-04-08T06:46:58;101639.38;;;-0.83;47.12
63819;BME280;49970;54.976;73.248;2023-04-08T06:49:24;101635.03;;;-0.79;47.74
63819;BME280;49970;54.976;73.248;2023-04-08T06:52:01;101636.72;;;-0.77;47.91
63819;BME280;49970;54.976;73.248;2023-04-08T06:54:28;101628.06;;;-0.72;47.63
63819;BME280;49970;54.976;73.248;2023-04-08T06:56:54;101612.44;;;-0.69;48.00
63819;BME280;49970;54.976;73.248;2023-04-08T06:59:22;101618.47;;;-0.64;47.76
63819;BME280;49970;54.976;73.248;2023-04-08T07:01:48;101608.94;;;-0.65;48.03
63819;BME280;49970;54.976;73.248;2023-04-08T07:04:14;101605.44;;;-0.60;48.32
63819;BME280;49970;54.976;73.248;2023-04-08T07:06:41;101611.53;;;-0.58;48.45
63819;BME280;49970;54.976;73.248;2023-04-08T07:09:17;101602.81;;;-0.52;48.27
63819;BME280;49970;54.976;73.248;2023-04-08T07:11:43;101599.31;;;-0.46;48.86
63819;BME280;49970;54.976;73.248;2023-04-08T07:14:10;101574.16;;;-0.47;49.05
63819;BME280;49970;54.976;73.248;2023-04-08T07:16:37;101588.84;;;-0.39;48.48
63819;BME280;49970;54.976;73.248;2023-04-08T07:19:03;101590.59;;;-0.33;48.43
63819;BME280;49970;54.976;73.248;2023-04-08T07:21:30;101565.50;;;-0.48;48.28
63819;BME280;49970;54.976;73.248;2023-04-08T07:23:56;101575.81;;;-0.33;48.64
63819;BME280;49970;54.976;73.248;2023-04-08T07:26:22;101571.44;;;-0.24;48.96
63819;BME280;49970;54.976;73.248;2023-04-08T07:28:54;101575.69;;;-0.13;48.73
63819;BME280;49970;54.976;73.248;2023-04-08T07:31:20;101569.56;;;-0.04;48.85
63819;BME280;49970;54.976;73.248;2023-04-08T07:33:46;101572.13;;;0.01;48.91
63819;BME280;49970;54.976;73.248;2023-04-08T07:36:13;101566.91;;;-0.01;48.18
63819;BME280;49970;54.976;73.248;2023-04-08T07:38:40;101562.66;;;-0.08;48.04
63819;BME280;49970;54.976;73.248;2023-04-08T07:41:06;101567.81;;;-0.05;48.50
63819;BME280;49970;54.976;73.248;2023-04-08T07:43:33;101556.53;;;-0.03;48.59
63819;BME280;49970;54.976;73.248;2023-04-08T07:46:00;101566.91;;;-0.01;48.40
63819;BME280;49970;54.976;73.248;2023-04-08T07:48:29;101560.97;;;-0.18;48.22
63819;BME280;49970;54.976;73.248;2023-04-08T07:50:55;101554.91;;;-0.20;48.56
63819;BME280;49970;54.976;73.248;2023-04-08T07:53:22;101546.25;;;-0.22;48.56
63819;BME280;49970;54.976;73.248;2023-04-08T07:55:51;101550.53;;;-0.17;48.71
63819;BME280;49970;54.976;73.248;2023-04-08T07:58:28;101539.19;;;-0.10;48.84
63819;BME280;49970;54.976;73.248;2023-04-08T08:01:04;101541.78;;;-0.04;49.21
63819;BME280;49970;54.976;73.248;2023-04-08T08:03:40;101541.78;;;-0.04;49.14
63819;BME280;49970;54.976;73.248;2023-04-08T08:06:11;101529.59;;;-0.05;48.69
63819;BME280;49970;54.976;73.248;2023-04-08T08:08:38;101534.88;;;-0.08;48.29
63819;BME280;49970;54.976;73.248;2023-04-08T08:11:04;101527.94;;;-0.13;48.63
63819;BME280;49970;54.976;73.248;2023-04-08T08:13:30;101520.19;;;-0.16;48.67
63819;BME280;49970;54.976;73.248;2023-04-08T08:15:56;101510.63;;;-0.16;49.30
63819;BME280;49970;54.976;73.248;2023-04-08T08:18:23;101515.78;;;-0.13;49.09
63819;BME280;49970;54.976;73.248;2023-04-08T08:20:49;101509.63;;;-0.03;48.99
63819;BME280;49970;54.976;73.248;2023-04-08T08:23:15;101507.88;;;-0.01;49.53
63819;BME280;49970;54.976;73.248;2023-04-08T08:29:34;101503.50;;;0.05;49.88
63819;BME280;49970;54.976;73.248;2023-04-08T08:32:00;101495.69;;;0.03;49.94
63819;BME280;49970;54.976;73.248;2023-04-08T08:34:26;101494.81;;;0.06;49.92
63819;BME280;49970;54.976;73.248;2023-04-08T08:36:53;101497.41;;;0.06;49.68
63819;BME280;49970;54.976;73.248;2023-04-08T08:39:29;101494.81;;;0.03;49.86
63819;BME280;49970;54.976;73.248;2023-04-08T08:42:05;101490.47;;;0.03;49.79
63819;BME280;49970;54.976;73.248;2023-04-08T08:44:33;101487.03;;;0.01;50.45
63819;BME280;49970;54.976;73.248;2023-04-08T08:46:59;101487.88;;;0.05;50.70
63819;BME280;49970;54.976;73.248;2023-04-08T08:49:25;101480.06;;;0.05;50.60
63819;BME280;49970;54.976;73.248;2023-04-08T08:51:53;101481.72;;;0.12;51.32
63819;BME280;49970;54.976;73.248;2023-04-08T08:54:20;101482.59;;;0.11;51.54
63819;BME280;49970;54.976;73.248;2023-04-08T08:56:50;101478.25;;;0.11;51.86
63819;BME280;49970;54.976;73.248;2023-04-08T08:59:16;101474.75;;;0.12;51.59
63819;BME280;49970;54.976;73.248;2023-04-08T09:01:42;101479.09;;;0.15;51.55
63819;BME280;49970;54.976;73.248;2023-04-08T09:04:13;101476.50;;;0.15;51.20
63819;BME280;49970;54.976;73.248;2023-04-08T09:06:48;101467.78;;;0.16;51.10
63819;BME280;49970;54.976;73.248;2023-04-08T09:09:16;101476.56;;;0.09;51.08
63819;BME280;49970;54.976;73.248;2023-04-08T09:11:45;101470.47;;;0.08;51.12
63819;BME280;49970;54.976;73.248;2023-04-08T09:14:24;101467.84;;;0.13;51.33
63819;BME280;49970;54.976;73.248;2023-04-08T09:16:51;101467.78;;;0.16;50.45
63819;BME280;49970;54.976;73.248;2023-04-08T09:19:18;101457.34;;;0.19;51.22
63819;BME280;49970;54.976;73.248;2023-04-08T09:21:44;101459.13;;;0.14;50.92
63819;BME280;49970;54.976;73.248;2023-04-08T09:24:27;101460.03;;;0.08;51.18
63819;BME280;49970;54.976;73.248;2023-04-08T09:26:54;101450.47;;;0.10;51.16
63819;BME280;49970;54.976;73.248;2023-04-08T09:29:51;101449.53;;;0.16;51.35
63819;BME280;49970;54.976;73.248;2023-04-08T09:33:29;101440.91;;;0.14;51.79
63819;BME280;49970;54.976;73.248;2023-04-08T09:36:01;101443.50;;;0.12;51.54
63819;BME280;49970;54.976;73.248;2023-04-08T09:38:27;101436.63;;;0.07;51.79
63819;BME280;49970;54.976;73.248;2023-04-08T09:40:54;101427.09;;;0.04;52.04
63819;BME280;49970;54.976;73.248;2023-04-08T09:43:23;101431.50;;;0.01;51.89
63819;BME280;49970;54.976;73.248;2023-04-08T09:45:51;101425.41;;;0.00;52.66
63819;BME280;49970;54.976;73.248;2023-04-08T09:48:21;101412.34;;;0.05;52.84
63819;BME280;49970;54.976;73.248;2023-04-08T09:50:50;101409.75;;;0.05;52.87
63819;BME280;49970;54.976;73.248;2023-04-08T09:53:25;101407.97;;;0.07;52.69
63819;BME280;49970;54.976;73.248;2023-04-08T09:55:59;101390.66;;;0.03;52.45
63819;BME280;49970;54.976;73.248;2023-04-08T09:58:28;101394.91;;;0.08;52.81
63819;BME280;49970;54.976;73.248;2023-04-08T10:00:58;101399.22;;;0.14;53.03
63819;BME280;49970;54.976;73.248;2023-04-08T10:03:32;101387.88;;;0.16;52.53
63819;BME280;49970;54.976;73.248;2023-04-08T10:06:01;101386.19;;;0.14;53.43
63819;BME280;49970;54.976;73.248;2023-04-08T10:08:37;101384.38;;;0.20;53.59
63819;BME280;49970;54.976;73.248;2023-04-08T10:11:04;101383.47;;;0.23;53.16
63819;BME280;49970;54.976;73.248;2023-04-08T10:13:32;101382.63;;;0.22;53.18
63819;BME280;49970;54.976;73.248;2023-04-08T10:16:28;101372.19;;;0.22;53.63
63819;BME280;49970;54.976;73.248;2023-04-08T10:18:55;101369.56;;;0.24;53.45
63819;BME280;49970;54.976;73.248;2023-04-08T10:21:34;101371.34;;;0.22;53.25
63819;BME280;49970;54.976;73.248;2023-04-08T10:24:10;101355.69;;;0.23;53.74
63819;BME280;49970;54.976;73.248;2023-04-08T10:26:38;101350.50;;;0.20;53.96
63819;BME280;49970;54.976;73.248;2023-04-08T10:31:45;101354.78;;;0.24;54.02
63819;BME280;49970;54.976;73.248;2023-04-08T10:34:18;101346.13;;;0.26;54.40
63819;BME280;49970;54.976;73.248;2023-04-08T10:36:46;101350.41;;;0.28;54.32
63819;BME280;49970;54.976;73.248;2023-04-08T10:39:13;101350.41;;;0.28;53.71
63819;BME280;49970;54.976;73.248;2023-04-08T10:41:45;101345.28;;;0.22;53.68
63819;BME280;49970;54.976;73.248;2023-04-08T10:44:19;101347.94;;;0.17;54.04
63819;BME280;49970;54.976;73.248;2023-04-08T10:46:49;101334.09;;;0.12;53.59
63819;BME280;49970;54.976;73.248;2023-04-08T10:49:33;101343.63;;;0.15;53.75
63819;BME280;49970;54.976;73.248;2023-04-08T10:51:59;101354.97;;;0.11;54.00
63819;BME280;49970;54.976;73.248;2023-04-08T10:54:26;101354.13;;;0.07;54.20
63819;BME280;49970;54.976;73.248;2023-04-08T10:56:57;101342.81;;;0.10;54.30
63819;BME280;49970;54.976;73.248;2023-04-08T10:59:31;101348.88;;;0.13;54.39
63819;BME280;49970;54.976;73.248;2023-04-08T11:01:57;101345.34;;;0.16;54.67
63819;BME280;49970;54.976;73.248;2023-04-08T11:04:30;101344.47;;;0.15;54.30
63819;BME280;49970;54.976;73.248;2023-04-08T11:06:56;101341.91;;;0.14;54.40
63819;BME280;49970;54.976;73.248;2023-04-08T11:09:33;101342.78;;;0.13;54.34
63819;BME280;49970;54.976;73.248;2023-04-08T11:12:00;101343.69;;;0.10;54.51
63819;BME280;49970;54.976;73.248;2023-04-08T11:14:33;101338.50;;;0.07;54.36
63819;BME280;49970;54.976;73.248;2023-04-08T11:17:10;101336.69;;;0.12;54.43
63819;BME280;49970;54.976;73.248;2023-04-08T11:19:47;101334.91;;;0.16;54.59
63819;BME280;49970;54.976;73.248;2023-04-08T11:22:14;101331.47;;;0.14;55.09
63819;BME280;49970;54.976;73.248;2023-04-08T11:24:42;101321.97;;;0.10;54.80
63819;BME280;49970;54.976;73.248;2023-04-08T11:27:09;101322.94;;;0.01;55.11
63819;BME280;49970;54.976;73.248;2023-04-08T11:29:36;101309.09;;;-0.03;55.21
63819;BME280;49970;54.976;73.248;2023-04-08T11:32:13;101319.50;;;0.01;55.42
63819;BME280;49970;54.976;73.248;2023-04-08T11:34:52;101316.03;;;0.00;55.20
63819;BME280;49970;54.976;73.248;2023-04-08T11:37:38;101314.28;;;-0.01;55.10
63819;BME280;49970;54.976;73.248;2023-04-08T11:40:09;101312.53;;;-0.01;55.30
63819;BME280;49970;54.976;73.248;2023-04-08T11:42:37;101303.94;;;-0.07;55.45
63819;BME280;49970;54.976;73.248;2023-04-08T11:45:14;101297.88;;;-0.08;55.24
63819;BME280;49970;54.976;73.248;2023-04-08T11:47:42;101293.53;;;-0.09;55.41
63819;BME280;49970;54.976;73.248;2023-04-08T11:50:09;101292.72;;;-0.12;55.73
63819;BME280;49970;54.976;73.248;2023-04-08T11:55:32;101281.44;;;-0.14;55.78
63819;BME280;49970;54.976;73.248;2023-04-08T11:58:04;101285.72;;;-0.09;55.86
63819;BME280;49970;54.976;73.248;2023-04-08T12:00:32;101276.19;;;-0.10;55.68
63819;BME280;49970;54.976;73.248;2023-04-08T12:02:59;101270.16;;;-0.12;55.57
63819;BME280;49970;54.976;73.248;2023-04-08T12:05:26;101276.19;;;-0.10;55.41
63819;BME280;49970;54.976;73.248;2023-04-08T12:08:03;101268.38;;;-0.10;55.49
63819;BME280;49970;54.976;73.248;2023-04-08T12:10:29;101247.63;;;-0.17;55.86
63819;BME280;49970;54.976;73.248;2023-04-08T12:12:56;101253.63;;;-0.11;56.33
63819;BME280;49970;54.976;73.248;2023-04-08T12:15:22;101258.00;;;-0.11;55.79
63819;BME280;49970;54.976;73.248;2023-04-08T12:18:08;101246.78;;;-0.16;55.71
63819;BME280;49970;54.976;73.248;2023-04-08T12:21:39;101247.63;;;-0.17;56.36
63819;BME280;49970;54.976;73.248;2023-04-08T12:24:09;101236.34;;;-0.18;55.86
63819;BME280;49970;54.976;73.248;2023-04-08T12:26:40;101225.97;;;-0.21;56.04
63819;BME280;49970;54.976;73.248;2023-04-08T12:29:10;101238.09;;;-0.18;56.33
63819;BME280;49970;54.976;73.248;2023-04-08T12:31:52;101232.03;;;-0.19;56.31
63819;BME280;49970;54.976;73.248;2023-04-08T12:34:23;101224.25;;;-0.20;56.53
63819;BME280;49970;54.976;73.248;2023-04-08T12:36:51;101223.38;;;-0.21;56.54
63819;BME280;49970;54.976;73.248;2023-04-08T12:39:23;101222.53;;;-0.23;56.67
63819;BME280;49970;54.976;73.248;2023-04-08T12:41:55;101229.56;;;-0.28;56.58
63819;BME280;49970;54.976;73.248;2023-04-08T12:44:24;101220.03;;;-0.29;56.45
63819;BME280;49970;54.976;73.248;2023-04-08T12:46:54;101219.13;;;-0.30;56.96
63819;BME280;49970;54.976;73.248;2023-04-08T12:49:25;101207.03;;;-0.32;56.60
63819;BME280;49970;54.976;73.248;2023-04-08T12:52:04;101213.19;;;-0.39;57.21
63819;BME280;49970;54.976;73.248;2023-04-08T12:54:34;101213.19;;;-0.39;57.22
63819;BME280;49970;54.976;73.248;2023-04-08T12:57:05;101207.09;;;-0.38;57.29
63819;BME280;49970;54.976;73.248;2023-04-08T12:59:34;101205.34;;;-0.38;57.66
63819;BME280;49970;54.976;73.248;2023-04-08T13:02:06;101191.47;;;-0.38;57.48
63819;BME280;49970;54.976;73.248;2023-04-08T13:04:38;101187.09;;;-0.35;57.62
63819;BME280;49970;54.976;73.248;2023-04-08T13:07:13;101185.41;;;-0.37;57.88